Time;durP1;ratioP1;P1;durP2;ratioP2;P2;SDS_P1;SDS_P2;PMS_P1;PMS_P2;Temp;Humidity;BMP_temperature;BMP_pressure;BME280_temperature;BME280_humidity;BME280_pressure;Samples;Min_cycle;Max_cycle;Signal;HPM_P1;HPM_P2
2023/10/04 00:00:15;;;;;;;12.02;6.65;;;;;;;;;;4986304;28;20053;-59
2023/10/04 00:02:45;;;;;;;13.07;6.72;;;;;;;;;;4961965;28;20117;-59
2023/10/04 00:05:10;;;;;;;11.60;6.70;;;;;;;;;;4977706;28;20039;-61
2023/10/04 00:07:36;;;;;;;10.40;6.22;;;;;;;;;;4982060;28;20049;-60
2023/10/04 00:10:05;;;;;;;10.60;6.15;;;;;;;;;;4982047;28;20034;-60
2023/10/04 00:12:30;;;;;;;10.80;6.03;;;;;;;;;;4986431;28;20041;-60
2023/10/04 00:14:56;;;;;;;9.93;6.22;;;;;;;;;;4986323;28;20046;-60
2023/10/04 00:17:21;;;;;;;10.07;6.32;;;;;;;;;;4983952;28;20472;-59
2023/10/04 00:19:47;;;;;;;9.15;6.07;;;;;;;;;;4983217;28;20039;-60
2023/10/04 00:22:12;;;;;;;12.48;6.38;;;;;;;;;;4985300;28;20045;-59
2023/10/04 00:24:38;;;;;;;10.25;6.35;;;;;;;;;;4986239;28;20035;-62
2023/10/04 00:27:03;;;;;;;12.25;6.60;;;;;;;;;;4986190;28;20585;-59
2023/10/04 00:29:30;;;;;;;10.35;6.22;;;;;;;;;;4986606;28;20073;-61
2023/10/04 00:31:55;;;;;;;9.68;5.60;;;;;;;;;;4986397;28;20064;-61
2023/10/04 00:34:21;;;;;;;10.90;6.63;;;;;;;;;;4986436;28;20554;-59
2023/10/04 00:36:46;;;;;;;10.88;6.40;;;;;;;;;;4985982;28;20034;-60
2023/10/04 00:39:13;;;;;;;9.80;5.80;;;;;;;;;;4987606;28;20482;-59
2023/10/04 00:41:40;;;;;;;11.30;6.55;;;;;;;;;;4981928;28;20031;-60
2023/10/04 00:44:07;;;;;;;10.27;6.07;;;;;;;;;;4983563;28;20380;-61
2023/10/04 00:46:35;;;;;;;9.25;5.82;;;;;;;;;;4986159;28;20569;-60
2023/10/04 00:49:00;;;;;;;10.63;6.57;;;;;;;;;;4984863;28;20486;-64
2023/10/04 00:51:26;;;;;;;11.07;6.10;;;;;;;;;;4983983;28;20037;-62
2023/10/04 00:53:53;;;;;;;9.35;5.72;;;;;;;;;;4985814;28;20058;-62
2023/10/04 00:56:18;;;;;;;9.13;5.97;;;;;;;;;;4964950;28;20039;-59
2023/10/04 00:58:45;;;;;;;10.55;5.68;;;;;;;;;;4965978;28;20112;-61
2023/10/04 01:01:11;;;;;;;10.40;6.13;;;;;;;;;;4985191;28;20049;-60
2023/10/04 01:03:37;;;;;;;9.48;6.00;;;;;;;;;;4985812;28;20026;-61
2023/10/04 01:06:03;;;;;;;9.38;5.90;;;;;;;;;;4984094;28;20030;-60
2023/10/04 01:08:28;;;;;;;9.77;5.72;;;;;;;;;;4984765;28;20071;-60
2023/10/04 01:10:54;;;;;;;11.55;5.90;;;;;;;;;;4985035;28;20037;-60
2023/10/04 01:13:22;;;;;;;8.90;6.38;;;;;;;;;;4985188;28;20578;-59
2023/10/04 01:15:54;;;;;;;9.18;5.82;;;;;;;;;;4968764;28;20022;-59
2023/10/04 01:18:20;;;;;;;8.77;5.72;;;;;;;;;;4984291;28;20045;-59
2023/10/04 01:20:46;;;;;;;10.60;6.22;;;;;;;;;;4986058;28;20030;-62
2023/10/04 01:23:11;;;;;;;7.78;5.63;;;;;;;;;;4986144;28;20026;-59
2023/10/04 01:25:37;;;;;;;9.73;5.45;;;;;;;;;;4982290;28;20031;-60
2023/10/04 01:28:11;;;;;;;9.85;5.65;;;;;;;;;;4985781;28;20014;-61
2023/10/04 01:30:36;;;;;;;8.80;5.38;;;;;;;;;;4984895;28;20070;-60
2023/10/04 01:33:04;;;;;;;9.48;5.78;;;;;;;;;;4990901;28;20085;-60
2023/10/04 01:35:29;;;;;;;10.07;5.65;;;;;;;;;;4985570;28;20041;-60
2023/10/04 01:37:55;;;;;;;9.10;5.70;;;;;;;;;;4985426;28;20137;-60
2023/10/04 01:40:24;;;;;;;11.45;5.97;;;;;;;;;;4983126;28;20045;-61
2023/10/04 01:42:50;;;;;;;9.25;5.95;;;;;;;;;;4984275;28;20113;-59
2023/10/04 01:45:18;;;;;;;10.20;5.85;;;;;;;;;;4985548;28;20121;-59
2023/10/04 01:47:44;;;;;;;9.63;5.43;;;;;;;;;;4972079;28;20057;-59
2023/10/04 01:50:09;;;;;;;10.35;5.93;;;;;;;;;;4983369;28;20484;-60
2023/10/04 01:52:36;;;;;;;11.02;6.25;;;;;;;;;;4986100;28;20069;-59
2023/10/04 01:55:05;;;;;;;9.10;5.65;;;;;;;;;;5000313;28;20034;-60
2023/10/04 01:57:30;;;;;;;10.18;5.90;;;;;;;;;;4982167;28;20093;-60
2023/10/04 01:59:55;;;;;;;9.43;5.30;;;;;;;;;;4985103;28;20511;-63
2023/10/04 02:02:22;;;;;;;10.33;6.03;;;;;;;;;;4985520;28;20269;-60
2023/10/04 02:04:52;;;;;;;9.25;5.70;;;;;;;;;;4985583;28;20285;-59
2023/10/04 02:07:21;;;;;;;9.13;5.32;;;;;;;;;;4985600;28;20034;-60
2023/10/04 02:09:47;;;;;;;9.60;5.63;;;;;;;;;;5003666;28;20066;-60
2023/10/04 02:12:13;;;;;;;9.27;5.85;;;;;;;;;;4989372;28;20125;-60
2023/10/04 02:14:38;;;;;;;9.75;5.72;;;;;;;;;;4986063;28;20168;-60
2023/10/04 02:17:08;;;;;;;9.93;5.80;;;;;;;;;;4984690;28;20073;-60
2023/10/04 02:19:33;;;;;;;9.23;5.45;;;;;;;;;;4986841;28;20529;-61
2023/10/04 02:21:59;;;;;;;9.75;5.72;;;;;;;;;;4987253;28;20038;-59
2023/10/04 02:24:24;;;;;;;9.73;5.95;;;;;;;;;;4986955;28;20034;-60
2023/10/04 02:26:50;;;;;;;9.27;5.80;;;;;;;;;;4988544;28;20053;-61
2023/10/04 02:29:15;;;;;;;8.65;5.45;;;;;;;;;;4988893;28;20039;-62
2023/10/04 02:31:41;;;;;;;9.18;5.63;;;;;;;;;;4988627;28;20150;-62
2023/10/04 02:34:06;;;;;;;12.27;5.93;;;;;;;;;;4987429;28;20043;-60
2023/10/04 02:36:32;;;;;;;9.82;5.85;;;;;;;;;;4981776;28;20507;-60
2023/10/04 02:38:57;;;;;;;10.10;6.03;;;;;;;;;;4987104;28;20251;-60
2023/10/04 02:41:23;;;;;;;10.15;6.30;;;;;;;;;;4982243;28;20034;-61
2023/10/04 02:43:48;;;;;;;9.30;6.10;;;;;;;;;;4977099;28;20042;-62
2023/10/04 02:46:13;;;;;;;11.80;6.35;;;;;;;;;;4988103;28;20117;-59
2023/10/04 02:48:41;;;;;;;9.05;6.10;;;;;;;;;;4988328;28;20195;-60
2023/10/04 02:51:06;;;;;;;10.43;6.40;;;;;;;;;;4981286;28;20133;-64
2023/10/04 02:53:31;;;;;;;9.75;6.07;;;;;;;;;;5002825;28;20109;-61
2023/10/04 02:55:58;;;;;;;9.88;6.13;;;;;;;;;;4987983;28;20034;-61
2023/10/04 02:58:24;;;;;;;10.50;6.15;;;;;;;;;;4985119;28;20074;-60
2023/10/04 03:00:50;;;;;;;10.35;6.45;;;;;;;;;;4988549;28;20057;-63
2023/10/04 03:03:19;;;;;;;9.90;6.50;;;;;;;;;;4988808;28;20035;-61
2023/10/04 03:05:47;;;;;;;11.67;6.33;;;;;;;;;;4988336;28;20042;-61
2023/10/04 03:08:13;;;;;;;11.27;6.80;;;;;;;;;;5002881;28;20113;-60
2023/10/04 03:10:38;;;;;;;11.50;6.47;;;;;;;;;;4988525;28;20151;-65
2023/10/04 03:13:11;;;;;;;10.25;6.88;;;;;;;;;;4988313;28;20049;-61
2023/10/04 03:15:37;;;;;;;11.98;6.30;;;;;;;;;;4984505;28;20476;-61
2023/10/04 03:18:13;;;;;;;11.02;6.45;;;;;;;;;;4987702;28;20046;-64
2023/10/04 03:20:42;;;;;;;11.07;6.60;;;;;;;;;;4975314;28;20105;-64
2023/10/04 03:23:11;;;;;;;12.35;6.72;;;;;;;;;;4983133;28;20041;-63
2023/10/04 03:25:36;;;;;;;10.80;6.57;;;;;;;;;;4983507;28;20043;-64
2023/10/04 03:28:02;;;;;;;11.45;6.43;;;;;;;;;;4981384;28;20038;-61
2023/10/04 03:30:27;;;;;;;12.88;6.88;;;;;;;;;;4987642;28;20030;-60
2023/10/04 03:32:56;;;;;;;14.17;7.10;;;;;;;;;;4987826;28;20488;-60
2023/10/04 03:35:21;;;;;;;13.20;7.18;;;;;;;;;;4984687;28;20324;-60
2023/10/04 03:38:01;;;;;;;12.00;6.75;;;;;;;;;;4982712;28;20070;-60
2023/10/04 03:40:34;;;;;;;11.45;6.72;;;;;;;;;;4985770;28;20574;-60
2023/10/04 03:43:00;;;;;;;11.30;6.70;;;;;;;;;;4987689;28;20038;-60
2023/10/04 03:45:25;;;;;;;13.25;7.70;;;;;;;;;;4987577;28;20046;-61
2023/10/04 03:47:52;;;;;;;10.80;7.05;;;;;;;;;;4987648;28;20359;-60
2023/10/04 03:50:17;;;;;;;12.73;6.93;;;;;;;;;;4986891;28;20463;-61
2023/10/04 03:52:43;;;;;;;14.02;7.07;;;;;;;;;;4983850;28;20035;-60
2023/10/04 03:55:09;;;;;;;11.57;6.55;;;;;;;;;;4987483;28;20039;-60
2023/10/04 03:57:34;;;;;;;11.25;6.65;;;;;;;;;;4986007;28;20442;-60
2023/10/04 04:00:13;;;;;;;11.82;6.68;;;;;;;;;;4969574;28;20040;-60
2023/10/04 04:02:39;;;;;;;11.57;6.70;;;;;;;;;;4977434;28;20486;-60
2023/10/04 04:05:08;;;;;;;9.43;6.55;;;;;;;;;;5001494;28;20045;-61
2023/10/04 04:07:34;;;;;;;12.00;7.15;;;;;;;;;;4987191;28;20121;-60
2023/10/04 04:10:02;;;;;;;10.63;6.72;;;;;;;;;;4984230;28;20113;-59
2023/10/04 04:12:27;;;;;;;11.20;6.80;;;;;;;;;;4986621;28;20518;-62
2023/10/04 04:14:53;;;;;;;9.97;6.70;;;;;;;;;;4986116;28;20035;-60
2023/10/04 04:17:22;;;;;;;11.07;7.05;;;;;;;;;;4983520;28;20788;-59
2023/10/04 04:19:47;;;;;;;12.10;6.78;;;;;;;;;;4975287;28;20031;-59
2023/10/04 04:22:15;;;;;;;12.52;6.97;;;;;;;;;;4984357;28;20038;-61
2023/10/04 04:24:41;;;;;;;12.20;6.45;;;;;;;;;;4978210;28;20057;-60
2023/10/04 04:27:07;;;;;;;10.75;6.80;;;;;;;;;;4983063;28;20034;-60
2023/10/04 04:29:32;;;;;;;11.73;7.25;;;;;;;;;;4984520;28;20430;-61
2023/10/04 04:31:58;;;;;;;11.40;7.25;;;;;;;;;;4985618;28;20111;-60
2023/10/04 04:34:25;;;;;;;10.20;6.60;;;;;;;;;;4984813;28;20041;-60
2023/10/04 04:36:51;;;;;;;11.68;7.18;;;;;;;;;;4980243;28;20042;-62
2023/10/04 04:39:18;;;;;;;9.90;6.68;;;;;;;;;;4989485;28;20053;-63
2023/10/04 04:41:43;;;;;;;11.60;6.32;;;;;;;;;;4975742;28;20056;-62
2023/10/04 04:44:09;;;;;;;11.30;6.57;;;;;;;;;;4977389;28;20030;-59
2023/10/04 04:46:35;;;;;;;10.98;6.65;;;;;;;;;;4977169;28;20053;-59
2023/10/04 04:49:00;;;;;;;13.65;6.43;;;;;;;;;;4965851;28;20423;-58
2023/10/04 04:51:26;;;;;;;10.25;5.63;;;;;;;;;;4980483;28;20084;-60
2023/10/04 04:53:51;;;;;;;9.25;5.78;;;;;;;;;;4978194;28;20041;-59
2023/10/04 04:56:18;;;;;;;9.80;5.90;;;;;;;;;;4977859;28;20034;-61
2023/10/04 04:58:47;;;;;;;9.73;6.22;;;;;;;;;;4971283;28;20537;-58
2023/10/04 05:01:14;;;;;;;9.88;5.75;;;;;;;;;;4984879;28;20043;-58
2023/10/04 05:03:42;;;;;;;10.00;5.47;;;;;;;;;;4973911;28;20046;-58
2023/10/04 05:06:09;;;;;;;8.40;5.55;;;;;;;;;;4987594;28;20042;-57
2023/10/04 05:08:36;;;;;;;10.23;6.30;;;;;;;;;;4972408;28;20046;-58
2023/10/04 05:11:04;;;;;;;9.10;5.40;;;;;;;;;;4971894;28;20069;-57
2023/10/04 05:13:30;;;;;;;8.30;5.43;;;;;;;;;;4971022;28;20031;-56
2023/10/04 05:15:56;;;;;;;8.70;5.85;;;;;;;;;;4971299;28;20523;-57
2023/10/04 05:18:22;;;;;;;8.77;5.68;;;;;;;;;;4973975;28;20079;-57
2023/10/04 05:20:53;;;;;;;11.25;5.47;;;;;;;;;;4974911;28;20428;-56
2023/10/04 05:23:18;;;;;;;9.48;5.60;;;;;;;;;;4973358;28;20065;-56
2023/10/04 05:25:44;;;;;;;11.02;5.32;;;;;;;;;;4978382;28;20524;-57
2023/10/04 05:28:11;;;;;;;9.50;5.57;;;;;;;;;;4971322;28;20035;-57
2023/10/04 05:30:41;;;;;;;10.57;5.50;;;;;;;;;;4968646;28;20074;-57
2023/10/04 05:33:06;;;;;;;10.50;5.95;;;;;;;;;;4956513;28;20042;-58
2023/10/04 05:35:35;;;;;;;10.05;5.75;;;;;;;;;;4958122;28;20078;-57
2023/10/04 05:38:03;;;;;;;9.73;5.57;;;;;;;;;;4965818;28;20050;-57
2023/10/04 05:40:29;;;;;;;8.98;5.28;;;;;;;;;;4972823;28;20042;-56
2023/10/04 05:42:55;;;;;;;7.90;5.32;;;;;;;;;;4973717;28;20043;-58
2023/10/04 05:45:20;;;;;;;11.48;5.60;;;;;;;;;;4971863;28;20053;-59
2023/10/04 05:47:46;;;;;;;9.43;5.55;;;;;;;;;;4971721;28;20051;-58
2023/10/04 05:50:17;;;;;;;10.93;6.47;;;;;;;;;;4971740;28;20058;-57
2023/10/04 05:52:43;;;;;;;11.07;6.10;;;;;;;;;;4975977;28;20548;-56
2023/10/04 05:55:08;;;;;;;10.30;6.07;;;;;;;;;;4973866;28;20042;-59
2023/10/04 05:57:34;;;;;;;12.23;6.07;;;;;;;;;;4974045;28;20476;-57
2023/10/04 05:59:59;;;;;;;9.90;6.32;;;;;;;;;;4978379;28;20038;-58
2023/10/04 06:02:25;;;;;;;10.20;6.13;;;;;;;;;;4974197;28;20404;-57
2023/10/04 06:04:50;;;;;;;9.60;6.15;;;;;;;;;;4973426;28;20299;-59
2023/10/04 06:07:15;;;;;;;9.73;6.15;;;;;;;;;;4976958;28;20573;-57
2023/10/04 06:09:42;;;;;;;9.95;5.97;;;;;;;;;;4976568;28;20037;-58
2023/10/04 06:12:08;;;;;;;12.00;5.93;;;;;;;;;;4975930;28;20039;-58
2023/10/04 06:14:35;;;;;;;10.80;6.15;;;;;;;;;;4974830;28;20066;-60
2023/10/04 06:17:00;;;;;;;10.38;5.93;;;;;;;;;;4973445;28;20065;-58
2023/10/04 06:19:26;;;;;;;15.43;8.05;;;;;;;;;;4971576;28;20070;-63
2023/10/04 06:21:52;;;;;;;11.30;6.68;;;;;;;;;;4967648;28;20142;-58
2023/10/04 06:24:17;;;;;;;12.47;7.03;;;;;;;;;;4970460;28;20169;-57
2023/10/04 06:26:42;;;;;;;10.82;6.40;;;;;;;;;;4975241;28;20287;-59
2023/10/04 06:29:08;;;;;;;13.45;6.25;;;;;;;;;;4974012;28;20073;-57
2023/10/04 06:31:33;;;;;;;10.80;5.95;;;;;;;;;;4970556;28;20039;-59
2023/10/04 06:34:01;;;;;;;10.40;6.43;;;;;;;;;;4970537;28;20117;-58
2023/10/04 06:36:26;;;;;;;11.93;6.15;;;;;;;;;;4977847;28;20121;-58
2023/10/04 06:38:51;;;;;;;10.35;6.20;;;;;;;;;;4976339;28;20128;-59
2023/10/04 06:41:24;;;;;;;10.10;6.00;;;;;;;;;;4978729;28;20042;-60
2023/10/04 06:43:49;;;;;;;10.93;5.90;;;;;;;;;;4974510;28;20049;-58
2023/10/04 06:46:14;;;;;;;10.88;5.82;;;;;;;;;;4975392;28;20487;-60
2023/10/04 06:48:39;;;;;;;10.55;5.53;;;;;;;;;;4991351;28;20121;-58
2023/10/04 06:51:05;;;;;;;10.48;5.80;;;;;;;;;;4976890;28;20438;-57
2023/10/04 06:53:30;;;;;;;10.73;5.70;;;;;;;;;;4977639;28;20046;-58
2023/10/04 06:55:57;;;;;;;12.03;5.90;;;;;;;;;;4978685;28;20042;-57
2023/10/04 06:58:22;;;;;;;10.10;5.95;;;;;;;;;;4976052;28;20316;-56
2023/10/04 07:00:47;;;;;;;12.80;5.93;;;;;;;;;;4976553;28;20495;-57
2023/10/04 07:03:14;;;;;;;7.85;5.70;;;;;;;;;;4965390;28;20571;-56
2023/10/04 07:05:40;;;;;;;9.07;5.57;;;;;;;;;;4974769;28;20563;-57
2023/10/04 07:08:06;;;;;;;10.63;6.07;;;;;;;;;;4974235;28;20046;-58
2023/10/04 07:10:31;;;;;;;8.70;5.20;;;;;;;;;;4976393;28;20026;-57
2023/10/04 07:12:57;;;;;;;9.13;5.70;;;;;;;;;;4975408;28;20058;-58
2023/10/04 07:15:24;;;;;;;9.10;5.38;;;;;;;;;;4976692;28;20067;-58
2023/10/04 07:17:50;;;;;;;8.32;5.40;;;;;;;;;;4973600;28;20042;-58
2023/10/04 07:20:15;;;;;;;11.38;5.72;;;;;;;;;;4972621;28;20050;-57
2023/10/04 07:22:44;;;;;;;10.07;5.65;;;;;;;;;;4974407;28;20117;-58
2023/10/04 07:25:12;;;;;;;9.70;5.38;;;;;;;;;;4972759;28;20046;-59
2023/10/04 07:27:41;;;;;;;10.10;6.05;;;;;;;;;;4976070;28;20042;-58
2023/10/04 07:30:07;;;;;;;8.98;5.55;;;;;;;;;;4954457;28;20039;-57
2023/10/04 07:32:32;;;;;;;8.35;5.10;;;;;;;;;;4956312;28;20038;-57
2023/10/04 07:34:58;;;;;;;9.15;5.28;;;;;;;;;;4955077;28;20042;-55
2023/10/04 07:37:23;;;;;;;14.25;7.13;;;;;;;;;;4953434;28;20128;-58
2023/10/04 07:39:48;;;;;;;10.80;5.77;;;;;;;;;;4954967;28;20085;-57
2023/10/04 07:42:14;;;;;;;10.57;5.65;;;;;;;;;;4978774;28;20393;-57
2023/10/04 07:44:40;;;;;;;9.50;5.47;;;;;;;;;;4978404;28;20538;-57
2023/10/04 07:47:05;;;;;;;10.02;5.18;;;;;;;;;;4973410;28;20038;-58
2023/10/04 07:49:31;;;;;;;9.48;5.15;;;;;;;;;;4976448;28;20070;-57
2023/10/04 07:51:57;;;;;;;9.35;5.43;;;;;;;;;;4974316;28;20030;-58
2023/10/04 07:54:22;;;;;;;8.52;5.35;;;;;;;;;;4973990;28;20046;-57
2023/10/04 07:56:51;;;;;;;9.07;5.13;;;;;;;;;;4973124;28;20701;-57
2023/10/04 07:59:19;;;;;;;8.88;5.55;;;;;;;;;;4973381;28;20046;-57
2023/10/04 08:01:45;;;;;;;8.48;4.88;;;;;;;;;;4971825;28;20018;-58
2023/10/04 08:04:11;;;;;;;9.00;5.28;;;;;;;;;;4955966;28;20044;-57
2023/10/04 08:06:39;;;;;;;9.10;5.32;;;;;;;;;;4988465;28;20026;-60
2023/10/04 08:09:04;;;;;;;9.10;5.32;;;;;;;;;;4973433;28;20475;-57
2023/10/04 08:11:31;;;;;;;7.95;5.13;;;;;;;;;;4973340;28;20330;-56
2023/10/04 08:13:57;;;;;;;7.85;5.13;;;;;;;;;;4972926;28;20026;-58
2023/10/04 08:16:23;;;;;;;7.07;4.93;;;;;;;;;;4974176;28;20022;-57
2023/10/04 08:18:48;;;;;;;9.32;5.15;;;;;;;;;;4971726;28;20133;-60
2023/10/04 08:21:15;;;;;;;7.50;5.03;;;;;;;;;;4972531;28;20665;-56
2023/10/04 08:23:41;;;;;;;7.70;5.15;;;;;;;;;;4971255;28;20026;-57
2023/10/04 08:26:12;;;;;;;9.98;5.68;;;;;;;;;;4971681;28;20402;-62
2023/10/04 08:28:41;;;;;;;8.05;4.97;;;;;;;;;;4974730;28;20042;-57
2023/10/04 08:31:08;;;;;;;8.95;5.50;;;;;;;;;;4973605;28;20042;-57
2023/10/04 08:33:33;;;;;;;7.82;5.07;;;;;;;;;;4971949;28;20073;-56
2023/10/04 08:35:58;;;;;;;9.23;5.53;;;;;;;;;;4973566;28;20521;-59
2023/10/04 08:38:25;;;;;;;8.55;5.38;;;;;;;;;;4972822;28;20305;-57
2023/10/04 08:40:53;;;;;;;9.15;5.05;;;;;;;;;;4972144;28;20039;-58
2023/10/04 08:43:18;;;;;;;7.75;4.90;;;;;;;;;;4971487;28;20481;-57
2023/10/04 08:45:46;;;;;;;7.85;4.82;;;;;;;;;;4971492;28;20121;-57
2023/10/04 08:48:12;;;;;;;8.20;5.22;;;;;;;;;;4952028;28;20046;-57
2023/10/04 08:50:44;;;;;;;7.82;4.90;;;;;;;;;;4954714;28;20043;-59
2023/10/04 08:53:21;;;;;;;9.07;5.03;;;;;;;;;;4973407;28;20117;-56
2023/10/04 08:55:53;;;;;;;8.05;4.90;;;;;;;;;;4972226;28;20039;-56
2023/10/04 08:58:19;;;;;;;7.90;5.07;;;;;;;;;;4954755;28;20577;-56
2023/10/04 09:00:44;;;;;;;8.25;5.00;;;;;;;;;;4972599;28;20030;-58
2023/10/04 09:03:09;;;;;;;7.03;5.03;;;;;;;;;;4969951;28;20034;-56
2023/10/04 09:05:34;;;;;;;8.05;5.05;;;;;;;;;;4971544;28;20674;-57
2023/10/04 09:08:04;;;;;;;6.63;4.77;;;;;;;;;;4950837;28;20059;-58
2023/10/04 09:10:30;;;;;;;9.20;5.20;;;;;;;;;;4968645;28;20297;-57
2023/10/04 09:12:55;;;;;;;10.00;5.35;;;;;;;;;;4961288;28;20852;-56
2023/10/04 09:15:21;;;;;;;7.38;4.53;;;;;;;;;;4970347;28;20069;-59
2023/10/04 09:17:47;;;;;;;7.18;4.47;;;;;;;;;;4969735;28;20039;-57
2023/10/04 09:20:15;;;;;;;6.88;4.97;;;;;;;;;;4969194;28;20052;-59
2023/10/04 09:22:40;;;;;;;6.65;4.70;;;;;;;;;;4971440;28;20038;-57
2023/10/04 09:25:06;;;;;;;8.05;5.28;;;;;;;;;;4961929;28;20116;-57
2023/10/04 09:27:31;;;;;;;6.80;4.47;;;;;;;;;;4972375;28;20041;-58
2023/10/04 09:29:59;;;;;;;7.82;5.25;;;;;;;;;;4975555;28;20042;-57
2023/10/04 09:32:33;;;;;;;5.97;4.35;;;;;;;;;;4989040;28;20053;-57
2023/10/04 09:34:59;;;;;;;7.03;4.50;;;;;;;;;;4971647;28;20156;-56
2023/10/04 09:37:24;;;;;;;9.07;4.77;;;;;;;;;;4970603;28;20037;-57
2023/10/04 09:39:53;;;;;;;7.30;4.83;;;;;;;;;;4966850;28;20313;-58
2023/10/04 09:42:19;;;;;;;6.45;4.28;;;;;;;;;;4954037;28;20294;-56
2023/10/04 09:44:45;;;;;;;8.18;4.45;;;;;;;;;;4967128;28;20470;-56
2023/10/04 09:47:10;;;;;;;7.60;4.55;;;;;;;;;;4974103;28;20026;-58
2023/10/04 09:49:37;;;;;;;6.22;4.25;;;;;;;;;;4974639;28;20166;-56
2023/10/04 09:52:12;;;;;;;6.88;4.43;;;;;;;;;;4953944;28;20034;-57
2023/10/04 09:54:37;;;;;;;7.95;4.43;;;;;;;;;;4958187;28;20082;-57
2023/10/04 09:57:06;;;;;;;8.40;4.95;;;;;;;;;;4969633;28;20141;-57
2023/10/04 09:59:31;;;;;;;7.60;4.78;;;;;;;;;;4972021;28;20057;-57
2023/10/04 10:01:57;;;;;;;9.07;4.47;;;;;;;;;;4974357;28;20406;-59
2023/10/04 10:04:49;;;;;;;6.22;4.28;;;;;;;;;;4973578;28;20550;-57
2023/10/04 10:07:18;;;;;;;6.38;4.30;;;;;;;;;;4972822;28;20037;-57
2023/10/04 10:10:04;;;;;;;6.03;4.32;;;;;;;;;;4975566;28;20061;-56
2023/10/04 10:12:31;;;;;;;6.90;4.68;;;;;;;;;;4972950;28;20042;-58
2023/10/04 10:15:02;;;;;;;6.88;4.47;;;;;;;;;;4976741;28;20066;-57
2023/10/04 10:17:30;;;;;;;6.93;4.32;;;;;;;;;;4973957;28;20042;-57
2023/10/04 10:19:56;;;;;;;7.90;4.70;;;;;;;;;;4974148;28;20445;-57
2023/10/04 10:22:21;;;;;;;8.02;4.47;;;;;;;;;;4986833;28;20798;-59
2023/10/04 10:24:48;;;;;;;7.78;4.53;;;;;;;;;;4973155;28;20495;-57
2023/10/04 10:27:15;;;;;;;6.53;4.22;;;;;;;;;;4969210;28;21063;-57
2023/10/04 10:29:41;;;;;;;7.88;4.30;;;;;;;;;;4959413;28;20170;-58
2023/10/04 10:32:17;;;;;;;7.55;4.47;;;;;;;;;;4968108;28;20465;-58
2023/10/04 10:34:43;;;;;;;6.32;4.20;;;;;;;;;;4968968;28;20071;-57
2023/10/04 10:37:38;;;;;;;6.85;4.68;;;;;;;;;;4962185;28;20158;-57
2023/10/04 10:40:13;;;;;;;6.07;4.25;;;;;;;;;;4974774;28;20141;-56
2023/10/04 10:42:57;;;;;;;6.22;4.07;;;;;;;;;;4960158;28;20034;-57
2023/10/04 10:45:24;;;;;;;6.90;4.63;;;;;;;;;;4973995;28;20046;-57
2023/10/04 10:47:49;;;;;;;7.03;4.00;;;;;;;;;;4974868;28;20031;-57
2023/10/04 10:50:30;;;;;;;6.55;4.07;;;;;;;;;;4973814;28;20046;-56
2023/10/04 10:53:02;;;;;;;5.90;3.83;;;;;;;;;;4972228;28;20187;-57
2023/10/04 10:55:27;;;;;;;7.78;4.32;;;;;;;;;;4952181;28;20050;-57
2023/10/04 10:57:53;;;;;;;5.40;4.00;;;;;;;;;;4968360;28;20082;-57
2023/10/04 11:02:43;;;;;;;7.33;4.50;;;;;;;;;;4983757;28;20289;-55
2023/10/04 11:05:09;;;;;;;6.90;4.07;;;;;;;;;;5001067;28;20286;-56
2023/10/04 11:07:36;;;;;;;7.85;4.50;;;;;;;;;;4987678;28;20034;-56
2023/10/04 11:10:01;;;;;;;7.45;4.22;;;;;;;;;;4987658;28;20046;-56
2023/10/04 11:12:26;;;;;;;6.95;4.20;;;;;;;;;;4978713;28;20058;-56
2023/10/04 11:14:52;;;;;;;6.43;4.32;;;;;;;;;;4982941;28;20423;-56
2023/10/04 11:17:18;;;;;;;7.47;4.93;;;;;;;;;;4980448;28;20038;-56
2023/10/04 11:19:43;;;;;;;6.95;4.53;;;;;;;;;;4984206;28;20230;-55
2023/10/04 11:22:10;;;;;;;7.45;4.57;;;;;;;;;;4978854;28;20058;-56
2023/10/04 11:24:36;;;;;;;6.93;4.30;;;;;;;;;;4986368;28;20042;-57
2023/10/04 11:27:01;;;;;;;6.88;4.18;;;;;;;;;;4980546;28;20089;-56
2023/10/04 11:29:27;;;;;;;7.38;4.72;;;;;;;;;;4997585;28;20038;-57
2023/10/04 11:31:54;;;;;;;8.18;4.50;;;;;;;;;;4981477;28;20026;-56
2023/10/04 11:34:20;;;;;;;6.65;4.10;;;;;;;;;;4962860;28;20043;-57
2023/10/04 11:36:46;;;;;;;6.10;3.80;;;;;;;;;;4985761;28;20477;-56
2023/10/04 11:39:18;;;;;;;7.40;4.47;;;;;;;;;;4984915;28;20076;-57
2023/10/04 11:41:47;;;;;;;5.38;4.00;;;;;;;;;;4981041;28;20161;-56
2023/10/04 11:44:13;;;;;;;7.07;4.15;;;;;;;;;;4978703;28;20014;-56
2023/10/04 11:46:54;;;;;;;6.93;4.25;;;;;;;;;;4974649;28;20394;-57
2023/10/04 11:49:20;;;;;;;7.85;4.13;;;;;;;;;;4977073;28;20041;-57
2023/10/04 11:51:47;;;;;;;8.35;4.18;;;;;;;;;;4977531;28;20035;-58
2023/10/04 11:54:12;;;;;;;7.43;4.53;;;;;;;;;;4974912;28;20085;-56
2023/10/04 11:56:40;;;;;;;7.13;4.03;;;;;;;;;;4985665;28;20125;-59
2023/10/04 11:59:05;;;;;;;6.90;4.25;;;;;;;;;;4980134;28;20297;-57
2023/10/04 12:01:31;;;;;;;7.07;4.20;;;;;;;;;;4983249;28;20038;-58
2023/10/04 12:03:56;;;;;;;7.05;4.35;;;;;;;;;;4977433;28;20161;-56
2023/10/04 12:06:25;;;;;;;6.03;4.20;;;;;;;;;;4978407;28;20450;-57
2023/10/04 12:08:53;;;;;;;6.50;4.25;;;;;;;;;;4980051;28;20289;-59
2023/10/04 12:11:22;;;;;;;5.97;3.80;;;;;;;;;;4977128;28;20125;-59
2023/10/04 12:13:49;;;;;;;9.35;4.38;;;;;;;;;;4984391;28;20499;-57
2023/10/04 12:16:14;;;;;;;8.20;4.55;;;;;;;;;;4985716;28;20034;-57
2023/10/04 12:18:40;;;;;;;9.15;4.53;;;;;;;;;;4986710;28;20506;-57
2023/10/04 12:21:05;;;;;;;7.20;4.07;;;;;;;;;;4984851;28;20082;-57
2023/10/04 12:23:32;;;;;;;7.97;4.35;;;;;;;;;;4986083;28;20057;-58
2023/10/04 12:25:57;;;;;;;8.27;4.20;;;;;;;;;;4981750;28;20038;-58
2023/10/04 12:28:23;;;;;;;8.27;4.63;;;;;;;;;;4973783;28;20590;-56
2023/10/04 12:30:48;;;;;;;7.70;4.03;;;;;;;;;;4981228;28;20490;-60
2023/10/04 12:33:13;;;;;;;9.63;4.70;;;;;;;;;;4972297;28;20296;-57
2023/10/04 12:35:39;;;;;;;9.10;4.50;;;;;;;;;;4985949;28;20873;-57
2023/10/04 12:38:04;;;;;;;8.50;4.63;;;;;;;;;;4985478;28;20054;-57
2023/10/04 12:40:29;;;;;;;8.03;4.23;;;;;;;;;;4985085;28;20031;-59
2023/10/04 12:42:54;;;;;;;10.23;5.05;;;;;;;;;;4985360;28;20359;-56
2023/10/04 12:45:20;;;;;;;9.95;4.78;;;;;;;;;;4983600;28;20069;-57
2023/10/04 12:47:45;;;;;;;10.77;4.57;;;;;;;;;;4984760;28;20192;-57
2023/10/04 12:50:17;;;;;;;9.70;4.90;;;;;;;;;;4981557;28;20482;-57
2023/10/04 12:52:43;;;;;;;9.38;4.57;;;;;;;;;;4975640;28;20097;-57
2023/10/04 12:55:08;;;;;;;7.63;4.50;;;;;;;;;;4983561;28;20038;-57
2023/10/04 12:57:34;;;;;;;9.30;5.03;;;;;;;;;;4961158;28;20412;-57
2023/10/04 13:00:00;;;;;;;10.45;4.93;;;;;;;;;;4969875;28;20047;-57
2023/10/04 13:02:25;;;;;;;10.38;5.00;;;;;;;;;;4984796;28;20574;-58
2023/10/04 13:04:51;;;;;;;11.55;5.28;;;;;;;;;;4985059;28;20310;-58
2023/10/04 13:07:17;;;;;;;8.10;4.65;;;;;;;;;;4980048;28;20468;-58
2023/10/04 13:09:46;;;;;;;10.85;5.13;;;;;;;;;;4976235;28;20035;-58
2023/10/04 13:14:55;;;;;;;9.10;4.90;;;;;;;;;;4986179;28;20146;-57
2023/10/04 13:17:20;;;;;;;9.27;4.55;;;;;;;;;;4984518;28;20129;-57
2023/10/04 13:19:46;;;;;;;7.60;4.80;;;;;;;;;;4985856;28;20053;-57
2023/10/04 13:22:12;;;;;;;8.90;4.63;;;;;;;;;;4985869;28;20396;-58
2023/10/04 13:24:37;;;;;;;8.70;4.82;;;;;;;;;;4981971;28;20045;-57
2023/10/04 13:27:03;;;;;;;9.40;5.23;;;;;;;;;;4987492;28;20514;-58
2023/10/04 13:29:30;;;;;;;8.90;5.00;;;;;;;;;;4985689;28;20436;-56
2023/10/04 13:31:55;;;;;;;8.48;4.43;;;;;;;;;;4986596;28;20461;-57
2023/10/04 13:34:20;;;;;;;9.40;5.00;;;;;;;;;;4990225;28;20057;-58
2023/10/04 13:36:46;;;;;;;7.90;4.22;;;;;;;;;;4987027;28;20034;-57
2023/10/04 13:39:11;;;;;;;9.67;4.63;;;;;;;;;;4999631;28;20133;-57
2023/10/04 13:41:38;;;;;;;9.90;4.55;;;;;;;;;;4986007;28;20281;-57
2023/10/04 13:44:04;;;;;;;10.53;5.07;;;;;;;;;;4984294;28;20049;-57
2023/10/04 13:46:29;;;;;;;9.57;5.13;;;;;;;;;;4983687;28;20778;-56
2023/10/04 13:48:55;;;;;;;10.17;4.77;;;;;;;;;;4984645;28;20042;-57
2023/10/04 13:51:23;;;;;;;10.25;4.78;;;;;;;;;;4984953;28;20295;-58
2023/10/04 13:53:49;;;;;;;11.23;4.82;;;;;;;;;;4984468;28;20026;-57
2023/10/04 13:56:14;;;;;;;9.70;4.75;;;;;;;;;;4979628;28;20420;-57
2023/10/04 13:58:40;;;;;;;8.63;4.73;;;;;;;;;;4977015;28;20042;-57
2023/10/04 14:01:05;;;;;;;9.53;4.70;;;;;;;;;;4983360;28;20281;-58
2023/10/04 14:03:33;;;;;;;11.23;4.80;;;;;;;;;;4985213;28;20288;-58
2023/10/04 14:06:06;;;;;;;11.10;5.00;;;;;;;;;;4975458;28;20031;-57
2023/10/04 14:08:31;;;;;;;11.45;4.72;;;;;;;;;;4980118;28;20038;-57
2023/10/04 14:10:57;;;;;;;10.10;4.45;;;;;;;;;;5000439;28;20089;-58
2023/10/04 14:13:23;;;;;;;8.55;4.40;;;;;;;;;;5003314;28;20031;-57
2023/10/04 14:15:55;;;;;;;8.43;4.33;;;;;;;;;;4988361;28;20112;-57
2023/10/04 14:18:20;;;;;;;9.32;4.53;;;;;;;;;;4987218;28;20359;-57
2023/10/04 14:20:46;;;;;;;8.40;5.00;;;;;;;;;;4983793;28;20529;-59
2023/10/04 14:23:12;;;;;;;9.38;4.45;;;;;;;;;;4986520;28;20042;-57
2023/10/04 14:25:38;;;;;;;8.38;4.60;;;;;;;;;;4984438;28;20097;-57
2023/10/04 14:28:04;;;;;;;10.88;4.70;;;;;;;;;;4985167;28;20038;-57
2023/10/04 14:30:29;;;;;;;10.48;4.30;;;;;;;;;;4985661;28;20466;-59
2023/10/04 14:32:56;;;;;;;9.80;4.97;;;;;;;;;;4987465;28;20054;-57
2023/10/04 14:35:23;;;;;;;9.32;4.80;;;;;;;;;;4987223;28;20108;-57
2023/10/04 14:37:49;;;;;;;9.10;4.90;;;;;;;;;;4982228;28;20042;-56
2023/10/04 14:40:17;;;;;;;9.60;4.97;;;;;;;;;;4986999;28;20130;-58